Airfield :
LOGIN :

Register | Disclaimer

   EN    FR    IT 

 










Legend :    VFR   Marginal VFR   IFR   Intensive IFR   Very Intensive IFR
Visi :
Ceiling :
>= 8 km
>= 3000ft
5 to 8 km
1000 to 3000 ft
1500m to 5 km
500 to 1000 ft
800 to 1500m
200 to 500 ft
< 800m
< 200 ft
Symbols :   Thunderstorms  Fog  Heavy snow  Heavy precipitations  Wind > 20 kt
SIGMETs :     Misc.  Thunderstorms  Icing  Turbulence  Mountain Waves  Volcanic Ashes






- Airport Elevation : 179 ft


LIPI - Rivolto AFB Udine

CURRENT METAR :
  • 270755Z 19005KT 9999 SCT060 BKN100 09/05 Q0993 RMK OVC VIS MIN 9999 WIND THR06 23003KT WIND THR24 21005KT BLU

EXPIRED METARs :
  • 270655Z 09007KT 9999 SCT040 BKN100 08/05 Q0992 RMK OVC VIS MIN 9999 WIND THR06 13007KT WIND THR24 12006KT BLU
  • 270555Z 06008KT 9999 SCT050 BKN100 07/03 Q0992 RMK OVC VIS MIN 9999 WIND THR06 09009KT WIND THR24 09008KT BLU

Expired Forecast.



MET'MAP, your aeronautical weather chart ! - Copyright ORBIFLY December 2007 - Disclaimer

ORBIFLY MET'MAP TEAM :

Programming & Development : Alexandra Zaïnal
Concept & original design : Baudouin d'Aumeries
Assistance for programming : Marc-Olivier Méhu
Technical & hardware support : Manuel Goepfert

Contact : metmap@orbifly.com




SOURCES & CREDITS :

   NOAA